NWS Home NWS Lubbock West Texas Mesonet Three hour changes as of 0252 PM, Sat Sep 26, 2020

Latest   N   C   S   Daily Sum   3hrΔ   24hrΔ   Soil Data 
Site Map   24hr Precip   72hr Precip   Google Plot


Station Time of Last Temp Now Temp 3h ago Delta-T Dewpoint Now Dewpoint 3hr ago Delta-Td 3hr Press Change (mB)
Reese Center  02:45 PM 95.6 82.6 13 46.7 55.3 -8.7 -3.2
Abernathy  02:45 PM 93.4 81.4 12 47.6 57 -9.4 -3
Plainview  02:45 PM 93.4 82.4 11 47.2 55.9 -8.7 -2.7
Tahoka  02:45 PM 95.2 82.9 12.3 52.8 59.3 -6.5 -3
Slaton  02:45 PM 93.4 82.7 10.7 52.5 59 -6.5 -2.9
Levelland  02:45 PM 100.4 81.9 18.5 28.8 54.8 -26.1 -3.2
Roaring Springs  02:45 PM 95.6 86.1 9.5 49.6 57.4 -7.8 -3.1
Floydada  02:45 PM 95.6 84.4 11.3 45.8 55 -9.2 -2.9
Ralls  02:45 PM 93.7 82.3 11.3 47.6 55 -7.4 -3.2
Brownfield  02:45 PM 95.3 83.6 11.6 47 56.8 -9.8 -3.1
Muleshoe  02:45 PM 98.1 85.9 12.2 22.4 35.7 -13.3 -2.7
Morton  02:45 PM 99.3 91.1 8.2 18.9 32.4 -13.5 -2.4
Comanche Springs  02:45 PM 92.4 84.4 8 61.8 63.6 -1.8 -3
O'Donnell  02:45 PM 93.3 82 11.2 51.8 59 -7.2 -2.8
Seagraves  02:45 PM 98.2 82.7 15.5 44.3 54.9 -10.6 -3.4
Amherst  02:45 PM 98.6 83 15.6 27.4 48.1 -20.7 -3.1
Plains  02:45 PM 98.5 86.1 12.4 30.5 46.1 -15.6 -2.5
Lamesa  02:45 PM 94.7 81.6 13.1 51.8 59 -7.2 -2.7
Hart  02:45 PM 94.9 80.2 14.7 33.3 49.9 -16.7 -2.8
Friona  02:45 PM 97.6 87.1 10.5 26.7 37.1 -10.4 -2.7
Dimmitt  02:45 PM 94.1 80.2 13.8 34.4 48.7 -14.3 -2.6
Tulia  02:45 PM 93.7 84 9.7 47.6 50.1 -2.6 -2.7
Silverton  02:45 PM 96.1 86.8 9.4 46.1 54.2 -8.2 -2.7
Post  02:45 PM 94.4 84.1 10.4 53.3 56.6 -3.2 -3.1
Seminole  02:45 PM 97.2 84.1 13.1 46.5 53.9 -7.4 -3.2
Gail  02:45 PM 93.6 83.3 10.3 56 59.1 -3 -2.7
White River Lake  02:45 PM 93.4 82.9 10.6 54.3 59.6 -5.2 -3.3
Graham  02:45 PM 92.3 81.6 10.7 53.5 57.9 -4.4 -2.9
Sundown  02:45 PM 100.9 86.3 14.6 21 46.6 -25.6 -2.8
Anton  02:45 PM 99.5 82.6 16.9 27.7 52.1 -24.5 -3.3
Fluvanna  02:45 PM 91.1 79.7 11.3 59.9 60.2 -0.3 -2.6
Spur  02:45 PM 94.2 84.2 10.1 55.1 59.3 -4.2 -3.1
Northwest Lubbock  02:45 PM 97.1 82.9 14.2 47.3 56.9 -9.7 -3.1
Guthrie  02:45 PM 94.6 86.4 8.2 54.7 57.5 -2.9 -3
Clarendon  02:45 PM 95.9 85.2 10.7 47.1 54.8 -7.7 -3.2
Paducah  02:45 PM 95.4 87.4 8 53.5 58 -4.4 -3.1
Snyder  02:45 PM 90.7 81.6 9.1 62.5 62.9 -0.4 -2.2
Memphis  02:45 PM 96.9 84.4 12.5 42.1 59 -16.9 -3.4
Jayton  02:45 PM 91.9 85.7 6.2 62 62.2 -0.2 -2.6
Pampa  02:45 PM 94.1 85.8 8.3 48.5 53.4 -4.9 -2.3
Aspermont  02:45 PM 89.3 84.3 4.9 65.4 65.9 -0.5 -2.5
Hereford  02:45 PM 96.7 83.2 13.5 32.2 40.3 -8.1 -2.8
Goodlett  02:45 PM 93.7 85.3 8.4 56.6 61.4 -4.9 -2.8
McLean  02:45 PM 92.8 84.8 8 48.1 55.8 -7.7 -2.8
Denver City  02:45 PM 98.9 85.8 13.1 30 46 -16.1 -2.7
Lake Alan Henry  02:45 PM 94 83.1 10.9 61.8 60.5 1.3 -2.8
Wolfforth  02:45 PM 94.6 81.6 13 47 57.2 -10.2 -3
Andrews  02:45 PM 97.2 87.3 9.9 44 53 -9 -2.4
Turkey  02:45 PM 98 87.4 10.6 48.8 56.8 -8 -3.1
Childress  02:45 PM 94.9 86.1 8.8 52.8 60 -7.2 -3.2
Tatum  02:45 PM 97.2 90.2 6.9 27.6 30.8 -3.2 -2.2
Northfield  02:45 PM 99 90.8 8.2 38.4 53.3 -14.8 -3
Dora  02:45 PM 96.8 86.8 10 28.5 33.5 -5 -2.5
Northwest San Angelo  02:45 PM 87.7 81.2 6.5 64.8 65 -0.2 -2.7
Saint Lawrence  02:45 PM 88 79.9 8.1 60.6 64.1 -3.5 -2.1
Haskell  02:45 PM 87.6 82.1 5.6 64.7 65.3 -0.6 -2.5
Wall  02:45 PM 87.4 81.3 6.1 66.7 67.2 -0.5 -2.7
Seymour  02:45 PM 90 83.7 6.3 62.3 65 -2.7 -2.4
Knox City  02:45 PM 91.1 84.2 6.8 63.4 64.6 -1.2 -2.5
Guadalupe Mtns Park  02:45 PM 90.3 79.8 10.5 31.1 36.7 -5.6 -1.5
Caprock Canyons   02:45 PM 97.1 87.1 10.1 40.9 54.5 -13.6 -3
Odell  02:45 PM 90.4 82.2 8.2 61.8 64.6 -2.8 -2.7
Coyanosa  02:45 PM 97.9 85.3 12.6 48.3 57.5 -9.2 -2.4
Big Lake  02:45 PM 85.3 76.7 8.6 64.9 65.4 -0.6 -2.1
Junction  02:45 PM 86 79.1 6.9 65.8 66.8 -1 -2.8
Hobbs  02:45 PM 98.3 88 10.3 27.4 44 -16.6 -2.5
Canadian  02:45 PM 97.4 90.6 6.8 48.8 53.7 -4.9 -2.6
Palo Duro Canyon State Park Rim  02:45 PM 97.5 85.3 12.2 41 49.4 -8.4 -2.9
Bootleg  02:45 PM 96 89.5 6.5 26 30.8 -4.8 -2.3
Sterling City  02:45 PM 89.1 81.2 7.9 64.1 65.1 -1 -2.4
Mertzon  02:45 PM 85.9 79.6 6.3 66.3 66.6 -0.3 -2.3
Persimmon Gap  02:45 PM 97.6 85.1 12.5 49.7 57.6 -7.8 -3.1
Weinert  02:45 PM 87.6 81.6 6 64.6 65.5 -1 -2.5
Claude 12 Southwest  02:45 PM 95.3 84.2 11.1 41.3 51.4 -10.1 -2.7
Amarillo 7 South Southeast  02:45 PM 96.2 83.1 13.1 42 50.1 -8.1 -2.8
Umbarger  02:45 PM 95 81.9 13.1 37.5 48.3 -10.8 -2.7
Lomax  02:45 PM 89.6 80.6 9 62.8 64.3 -1.5 -2.3
Amarillo 9 North Northeast  02:45 PM 94.6 82.2 12.5 45.1 50.8 -5.7 -2.7
Aiken  02:45 PM 94 84.7 9.3 50.3 57.5 -7.2 -2.8
Sweetwater  02:45 PM 86.1 77.8 8.3 66.4 66 0.4 -2
Dozier  02:45 PM 96.9 86.6 10.3 52.2 59.4 -7.3 -3.1
Amarillo 15 North Northwest  02:45 PM 95.5 84.8 10.6 44 44.2 -0.2 -2.7
Menard  02:45 PM 83.8 78.6 5.2 67.4 67.4 -0.1 -2.6
Tarzan  02:45 PM 95.3 83.6 11.8 52.8 60.7 -7.9 -2.6
Goodnight  02:45 PM 96.2 86.4 9.8 44.2 55.9 -11.8 -2.9
Boys Ranch   02:45 PM 96.1 85.4 10.7 37 39.2 -2.2 -26.5
Fort McKavett  02:45 PM 85.1 79.3 5.8 66.5 66.5 0 -2.7
Fort Chadbourne  02:45 PM 86.6 79.1 7.5 67.3 67.6 -0.4 -2.7
Palo Duro Canyon State Park Floor  02:45 PM 99 87.6 11.4 43 52.4 -9.3 -3.2
Fort Lancaster  02:45 PM 86.2 77.6 8.6 68 67.7 0.3 -2.7
Dell City 1N  02:45 PM 92.1 78.5 13.6 46.5 42.2 4.3 -2.8
Clyde  02:10 PM 87.7 76.8 10.9 59.5 62.2 -2.6 -1.4
Snyder SSW  02:45 PM 89.3 80.2 9.1 65.1 65 0.1 -2.3
Panhandle  02:45 PM 95 84.4 10.6 44.3 50.8 -6.5 -2.5
Vigo Park  02:45 PM 95.1 86 9.1 47.6 54.3 -6.8 -2.8
Welch  02:45 PM 95.9 81.4 14.5 50.3 59.8 -9.4 -3
Throckmorton  02:45 PM 89.4 82.3 7 67.5 67.9 -0.4 -2.4
Sierra Blanca  02:45 PM 92.3 84.7 7.6 35.3 35.3 -0 -2.3
Fort Lewis CO  02:45 PM 74.2 67.3 6.9 28.8 28.9 -0.2 -1.2
New Home  02:45 PM 94.4 81.9 12.5 49.6 59.6 -10 -3
McCamey  02:45 PM 90.5 79.5 11 63.3 64.7 -1.4 -2.3
Stamford  02:45 PM 89.3 80.2 9.1 63.9 66.5 -2.6 -2.8
Crowell  02:45 PM 91.7 83.3 8.4 62.3 64.4 -2.2 -3.1
Stinnett  02:45 PM 95.2 81.8 13.4 44.7 48.6 -3.9 -2.7
Colorado City  02:45 PM 91.2 81.8 9.4 65.6 65.2 0.4 -2.5
Happy  02:45 PM 92.8 83.4 9.4 43.6 53 -9.5 -2.7
Endee  02:45 PM 96.2 88.3 7.9 30.3 37.1 -6.8 -2.2
JA Ranch  02:45 PM 99.9 88.8 11.1 47.4 58 -10.6 -3.3
Adrian  02:45 PM 93.4 84.9 8.5 30.5 35 -4.5 -2.1
Lesley  02:45 PM 99.8 89.2 10.5 50 57.3 -7.3 -3.4
Earth  02:45 PM 98 85 12.9 29.6 39.2 -9.6 -2.9
Van Horn  02:45 PM 97.6 89.5 8.1 35.7 35.8 -0.2 -2.2
Rotan  02:45 PM 89.9 83.4 6.5 65.3 64.8 0.4 -2.2
Fritch  02:45 PM 96.7 82.5 14.2 44.1 49.2 -5.1 -2.8
Estelline  02:45 PM 98.4 88.8 9.5 48.5 61.1 -12.5 -3.3
Crane  02:45 PM 92.7 81.8 10.8 57 62.2 -5.2 -2.4
Hackberry  02:45 PM 93.4 85.4 8 60.4 62.7 -2.3 -3
Romero 11SSW  02:45 PM 95.2 89.2 6 35 39 -4 -2.1
Palo Duro Reservoir 1NW  02:40 PM 96.6 85 11.6 42.8 46.5 -3.7 -2.5
South Plains 3ENE  02:45 PM 96.1 85.6 10.5 48.9 56.3 -7.3 -2.8
Lake McClellan 2NW  02:45 PM 94.3 84.6 9.7 51 56.2 -5.2 -2.6
Segovia 7SSW  02:45 PM 84.4 74.8 9.7 65 65.9 -0.9 -2.9
Castolon 1NW BBNP  02:45 PM 99.1 87 12 46.9 53.7 -6.9 -3.3
Smyer  02:45 PM 95 81.9 13.1 48.4 54.8 -6.3 -3.2
Doole 3WNW  02:45 PM 89.7 85 4.7 65.6 67.4 -1.8 -2.5
Stratford  02:45 PM 95.5 91.4 4 42.2 38.8 3.4 -1.9
Truscott  02:45 PM 90.6 82.6 8 60.6 63.5 -3 -2.7
Hefner  02:45 PM 90.8 82.8 8 61 65.7 -4.7 -2.6
Kent I10-I20 Split  02:45 PM 95.3 91.1 4.2 35.9 36.8 -0.9 -1.8
Olton  02:45 PM 97.3 81.4 15.9 33.9 53.5 -19.7 -3.1
McAdoo  02:45 PM 94.5 83 11.5 52.9 59 -6.2 -3
Borger  02:45 PM 97.7 85.9 11.8 41.3 48.7 -7.4 -3

West Texas Mesonet Home   Site Map/Menu  NWS Lubbock Soil Data  Daily Summary Page  24hr Precip  72hr Precip  Google Plot